Wednesday, August 15, 2018, 7:09 AM EDT
Back to Local

KALB, Albany International Airport

Location: Latham, NY, United States Lat: 42.75
Local Time: 7:09 AM EDT (11:09 GMT) Lon: -73.8
Time Zone: US/Eastern Elev: 285 ft

Show me the last for .
Show Decoded

2018-08-15 06:51 METAR KALB 151051Z 00000KT 10SM FEW017 SCT260 20/18 A2985 RMK AO2 SLP107 FEW V
                 SCT T02000178 =
2018-08-15 05:51 METAR KALB 150951Z 17003KT 10SM VCFG FEW015 FEW030 FEW180 SCT260 20/18 A2984 RMK
                 AO2 SLP104 VCFG N T02000178 =
2018-08-15 04:51 METAR KALB 150851Z 00000KT 10SM FEW180 20/17 A2983 RMK AO2 SLP101 T02000172
                 53002 =
2018-08-15 03:51 METAR KALB 150751Z 27003KT 10SM FEW120 FEW180 21/18 A2983 RMK AO2 SLP099
                 T02060178 =
2018-08-15 02:51 METAR KALB 150651Z 27003KT 10SM BKN120 OVC180 21/18 A2982 RMK AO2 SLP097
                 T02110183 =
2018-08-15 01:51 METAR KALB 150551Z 00000KT 10SM SCT026 SCT035 OVC180 22/19 A2983 RMK AO2 SLP099
                 60000 T02170189 10244 20217 50005 =
2018-08-15 01:33 METAR KALB 150533Z 00000KT 10SM BKN026 BKN035 OVC160 22/19 A2984 RMK AO2
                 T02220194 =
2018-08-15 01:19 METAR KALB 150519Z 00000KT 10SM SCT029 BKN035 OVC160 22/19 A2984 RMK AO2
                 T02220194 =
2018-08-15 01:10 METAR KALB 150510Z 28003KT 10SM BKN029 OVC160 22/19 A2983 RMK AO2 T02170194 =
2018-08-15 00:51 METAR KALB 150451Z 32004KT 10SM FEW015 SCT130 BKN160 22/19 A2983 RMK AO2 SLP100
                 T02220194 402940217 =
2018-08-14 23:51 METAR KALB 150351Z 34004KT 10SM SCT015 OVC130 22/19 A2983 RMK AO2 SLP100
                 T02220194 =
2018-08-14 23:35 METAR KALB 150335Z 34004KT 10SM BKN015 OVC130 23/20 A2983 RMK AO2 T02280200 =
2018-08-14 23:17 METAR KALB 150317Z 34004KT 10SM BKN014 BKN040 BKN170 22/19 A2983 RMK AO2
                 T02220194 =
2018-08-14 22:51 METAR KALB 150251Z 00000KT 10SM FEW014 SCT040 BKN170 22/19 A2981 RMK AO2 RAE11
                 SLP094 P0000 60000 T02220189 50006 =
2018-08-14 21:51 METAR KALB 150151Z 16003KT 10SM -RA FEW050 SCT110 SCT160 BKN240 23/19 A2982 RMK
                 AO2 RAB35 SLP095 P0000 T02330194 =
2018-08-14 20:51 METAR KALB 150051Z 00000KT 10SM FEW050 SCT100 BKN160 BKN210 24/19 A2982 RMK AO2
                 SLP095 T02390189 =
2018-08-14 19:51 METAR KALB 142351Z 16005KT 10SM SCT050 SCT100 BKN160 BKN210 24/18 A2980 RMK AO2
                 RAB25E48 SLP088 P0000 60000 T02440183 10294 20244 53004 =
2018-08-14 18:51 METAR KALB 142251Z 15005KT 10SM FEW040 SCT050 SCT095 BKN200 BKN250 26/19 A2979
                 RMK AO2 LTG DSNT E SLP086 VCSH SW-NW T02560189 =
2018-08-14 17:51 METAR KALB 142151Z 20011KT 10SM FEW040 FEW050 SCT095 SCT200 BKN250 28/18 A2978
                 RMK AO2 LTG DSNT E TSE06 SLP083 CB DSNT NE-E MOV NE T02780178 =
2018-08-14 17:06 METAR KALB 142106Z 33004KT 10SM SCT042 SCT050 BKN095 BKN200 28/19 A2978 RMK AO2
                 LTG DSNT NE AND SE TSE06 CB DSNT NE MOV NE T02780194 =
2018-08-14 16:51 METAR KALB 142051Z 03005KT 10SM TS SCT042 SCT050 BKN095 BKN200 27/19 A2978 RMK
                 AO2 WSHFT 1949 LTG DSNT NE-SE SLP083 OCNL LTGICCG DSNT NE TS DSNT NE MOV NE
                 T02720194 56010 =
2018-08-14 16:09 METAR KALB 142009Z 29014KT 10SM TS FEW042 BKN050CB BKN095 BKN180 26/18 A2980 =
2018-08-14 15:51 METAR KALB 141951Z 19010KT 10SM TS FEW040 BKN050CB BKN095 BKN180 BKN250 29/18
                 A2979 RMK AO2 LTG DSNT NW TSB51 SLP087 OCNL LTGICCG VC W-NW TS VC W-NW MOV NE
                 T02890178 =
2018-08-14 14:51 METAR KALB 141851Z 18011G19KT 10SM FEW040 SCT050 SCT100 SCT180 29/17 A2980 RMK
                 AO2 LTG DSNT SW-NW SLP090 T02940172 =
2018-08-14 13:51 METAR KALB 141751Z 18012KT 10SM SCT040TCU SCT050 SCT180 29/18 A2981 RMK AO2
                 SLP094 TCU W MOV N T02890178 10289 20222 58016 =
2018-08-14 12:51 METAR KALB 141651Z 17011KT 10SM SCT030TCU SCT040 SCT100 28/18 A2983 RMK AO2
                 SLP101 TCU SW MOV N T02780183 =
2018-08-14 11:51 METAR KALB 141551Z 17012KT 10SM SCT028 SCT038 BKN150 27/19 A2986 RMK AO2 SLP109
                 T02670194 =
2018-08-14 10:51 METAR KALB 141451Z 16011KT 10SM SCT024 BKN038 26/19 A2986 RMK AO2 SLP110
                 T02560194 58003 =
2018-08-14 09:51 METAR KALB 141351Z 17009KT 10SM FEW010 BKN017 OVC023 24/20 A2988 RMK AO2 SLP115
                 OCNL BINOVC T02390200 =
2018-08-14 09:12 METAR KALB 141312Z 17009KT 10SM SCT012 BKN017 OVC021 23/20 A2987 RMK AO2
                 T02280200 =
2018-08-14 08:51 METAR KALB 141251Z 17007KT 10SM BKN012 BKN017 OVC021 23/20 A2987 RMK AO2 SLP114
                 T02280200 =
2018-08-14 08:12 METAR KALB 141212Z 14005KT 10SM BKN010 BKN015 OVC023 23/20 A2987 RMK AO2
                 T02280200 =
2018-08-14 07:51 METAR KALB 141151Z 14005KT 10SM SCT010 BKN015 OVC023 22/20 A2987 RMK AO2 DZE25
                 SLP114 SCT V BKN P0001 60005 70029 T02220200 10222 20217 53006 =
2018-08-14 07:25 METAR KALB 141125Z 14004KT 3SM FEW007 SCT014 OVC036 22/20 A2987 RMK AO2 SFC VIS
                 8 DZE25 P0001 T02220200 =

Support USWX by starting your Amazon purchase here.